sensor_id;sensor_type;location;lat;lon;timestamp;pressure;altitude;pressure_sealevel;temperature;humidity
2549;BME280;1284;53.520;10.248;2023-01-29T00:01:06;101936.84;;;5.49;95.58
2549;BME280;1284;53.520;10.248;2023-01-29T00:03:32;101939.34;;;5.60;95.42
2549;BME280;1284;53.520;10.248;2023-01-29T00:05:58;101942.97;;;5.69;94.83
2549;BME280;1284;53.520;10.248;2023-01-29T00:08:24;101926.28;;;5.39;95.90
2549;BME280;1284;53.520;10.248;2023-01-29T00:10:51;101931.47;;;5.31;96.73
2549;BME280;1284;53.520;10.248;2023-01-29T00:13:16;101926.28;;;5.39;96.54
2549;BME280;1284;53.520;10.248;2023-01-29T00:15:52;101916.41;;;5.59;96.38
2549;BME280;1284;53.520;10.248;2023-01-29T00:18:18;101924.19;;;5.55;95.90
2549;BME280;1284;53.520;10.248;2023-01-29T00:20:44;101915.38;;;5.55;95.77
2549;BME280;1284;53.520;10.248;2023-01-29T00:23:09;101916.44;;;5.53;96.17
2549;BME280;1284;53.520;10.248;2023-01-29T00:28:45;101905.56;;;5.69;95.27
2549;BME280;1284;53.520;10.248;2023-01-29T00:31:16;101908.22;;;5.69;95.84
2549;BME280;1284;53.520;10.248;2023-01-29T00:33:42;101895.09;;;5.53;96.62
2549;BME280;1284;53.520;10.248;2023-01-29T00:36:10;101881.72;;;5.53;96.94
2549;BME280;1284;53.520;10.248;2023-01-29T00:38:37;101889.97;;;5.57;96.51
2549;BME280;1284;53.520;10.248;2023-01-29T00:41:07;101877.63;;;5.61;96.01
2549;BME280;1284;53.520;10.248;2023-01-29T00:43:51;101877.13;;;5.59;96.78
2549;BME280;1284;53.520;10.248;2023-01-29T00:46:35;101883.84;;;5.57;97.48
2549;BME280;1284;53.520;10.248;2023-01-29T00:49:01;101881.38;;;5.60;97.51
2549;BME280;1284;53.520;10.248;2023-01-29T00:51:27;101885.84;;;5.65;97.16
2549;BME280;1284;53.520;10.248;2023-01-29T00:53:53;101875.72;;;5.62;97.70
2549;BME280;1284;53.520;10.248;2023-01-29T00:56:26;101872.84;;;5.58;97.73
2549;BME280;1284;53.520;10.248;2023-01-29T00:58:52;101873.56;;;5.64;97.25
2549;BME280;1284;53.520;10.248;2023-01-29T01:01:18;101874.38;;;5.64;97.19
2549;BME280;1284;53.520;10.248;2023-01-29T01:04:04;101878.63;;;5.65;97.39
2549;BME280;1284;53.520;10.248;2023-01-29T01:06:29;101888.81;;;5.63;97.96
2549;BME280;1284;53.520;10.248;2023-01-29T01:08:55;101884.19;;;5.69;97.48
2549;BME280;1284;53.520;10.248;2023-01-29T01:11:39;101881.31;;;5.65;97.75
2549;BME280;1284;53.520;10.248;2023-01-29T01:14:04;101883.97;;;5.65;97.82
2549;BME280;1284;53.520;10.248;2023-01-29T01:16:30;101887.13;;;5.67;98.16
2549;BME280;1284;53.520;10.248;2023-01-29T01:18:55;101885.84;;;5.65;97.78
2549;BME280;1284;53.520;10.248;2023-01-29T01:21:21;101887.56;;;5.56;98.71
2549;BME280;1284;53.520;10.248;2023-01-29T01:23:46;101881.78;;;5.67;98.32
2549;BME280;1284;53.520;10.248;2023-01-29T01:26:11;101888.31;;;5.61;99.14
2549;BME280;1284;53.520;10.248;2023-01-29T01:28:37;101884.91;;;5.74;98.60
2549;BME280;1284;53.520;10.248;2023-01-29T01:31:11;101880.81;;;5.44;99.80
2549;BME280;1284;53.520;10.248;2023-01-29T01:33:36;101897.94;;;5.43;99.99
2549;BME280;1284;53.520;10.248;2023-01-29T01:36:03;101887.75;;;5.45;100.00
2549;BME280;1284;53.520;10.248;2023-01-29T01:38:29;101889.19;;;5.57;99.66
2549;BME280;1284;53.520;10.248;2023-01-29T01:40:54;101898.50;;;5.40;100.00
2549;BME280;1284;53.520;10.248;2023-01-29T01:43:19;101895.75;;;5.08;100.00
2549;BME280;1284;53.520;10.248;2023-01-29T01:45:45;101899.06;;;5.19;100.00
2549;BME280;1284;53.520;10.248;2023-01-29T01:48:19;101899.84;;;5.19;100.00
2549;BME280;1284;53.520;10.248;2023-01-29T01:53:15;101895.53;;;5.23;100.00
2549;BME280;1284;53.520;10.248;2023-01-29T01:55:45;101889.03;;;5.29;100.00
2549;BME280;1284;53.520;10.248;2023-01-29T01:58:18;101889.19;;;5.19;100.00
2549;BME280;1284;53.520;10.248;2023-01-29T02:00:47;101892.22;;;5.31;100.00
2549;BME280;1284;53.520;10.248;2023-01-29T02:03:13;101880.56;;;5.60;100.00
2549;BME280;1284;53.520;10.248;2023-01-29T02:05:58;101880.06;;;5.76;100.00
2549;BME280;1284;53.520;10.248;2023-01-29T02:08:54;101876.75;;;5.66;100.00
2549;BME280;1284;53.520;10.248;2023-01-29T02:11:40;101866.94;;;5.61;100.00
2549;BME280;1284;53.520;10.248;2023-01-29T02:14:06;101868.69;;;5.33;100.00
2549;BME280;1284;53.520;10.248;2023-01-29T02:16:34;101880.31;;;5.24;100.00
2549;BME280;1284;53.520;10.248;2023-01-29T02:19:04;101871.47;;;5.42;100.00
2549;BME280;1284;53.520;10.248;2023-01-29T02:24:26;101871.03;;;5.72;100.00
2549;BME280;1284;53.520;10.248;2023-01-29T02:46:04;101852.88;;;5.37;100.00
2549;BME280;1284;53.520;10.248;2023-01-29T02:48:53;101846.03;;;5.49;100.00
2549;BME280;1284;53.520;10.248;2023-01-29T02:54:27;101847.94;;;5.63;100.00
2549;BME280;1284;53.520;10.248;2023-01-29T02:57:01;101846.28;;;5.67;100.00
2549;BME280;1284;53.520;10.248;2023-01-29T03:05:20;101826.44;;;5.54;100.00
2549;BME280;1284;53.520;10.248;2023-01-29T03:07:51;101817.06;;;5.57;100.00
2549;BME280;1284;53.520;10.248;2023-01-29T03:10:33;101812.22;;;5.59;100.00
2549;BME280;1284;53.520;10.248;2023-01-29T03:13:09;101803.13;;;5.73;100.00
2549;BME280;1284;53.520;10.248;2023-01-29T03:15:42;101806.91;;;5.72;100.00
2549;BME280;1284;53.520;10.248;2023-01-29T03:18:52;101805.31;;;5.71;100.00
2549;BME280;1284;53.520;10.248;2023-01-29T03:21:22;101795.84;;;5.79;100.00
2549;BME280;1284;53.520;10.248;2023-01-29T03:24:12;101797.34;;;5.53;100.00
2549;BME280;1284;53.520;10.248;2023-01-29T03:27:01;101795.63;;;5.75;100.00
2549;BME280;1284;53.520;10.248;2023-01-29T03:29:46;101791.47;;;5.83;100.00
2549;BME280;1284;53.520;10.248;2023-01-29T03:32:47;101793.41;;;5.64;100.00
2549;BME280;1284;53.520;10.248;2023-01-29T03:35:20;101791.56;;;5.78;100.00
2549;BME280;1284;53.520;10.248;2023-01-29T03:38:02;101786.03;;;5.74;100.00
2549;BME280;1284;53.520;10.248;2023-01-29T03:40:34;101795.69;;;5.57;100.00
2549;BME280;1284;53.520;10.248;2023-01-29T03:43:12;101788.00;;;5.69;100.00
2549;BME280;1284;53.520;10.248;2023-01-29T03:46:02;101778.31;;;5.73;100.00
2549;BME280;1284;53.520;10.248;2023-01-29T03:48:38;101787.84;;;5.79;100.00
2549;BME280;1284;53.520;10.248;2023-01-29T03:51:26;101776.47;;;5.87;100.00
2549;BME280;1284;53.520;10.248;2023-01-29T03:54:14;101778.47;;;5.95;100.00
2549;BME280;1284;53.520;10.248;2023-01-29T03:56:54;101776.59;;;5.95;100.00
2549;BME280;1284;53.520;10.248;2023-01-29T03:59:35;101774.72;;;5.96;100.00
2549;BME280;1284;53.520;10.248;2023-01-29T04:02:37;101769.44;;;5.91;100.00
2549;BME280;1284;53.520;10.248;2023-01-29T04:05:17;101768.03;;;5.80;100.00
2549;BME280;1284;53.520;10.248;2023-01-29T04:08:01;101766.38;;;5.84;100.00
2549;BME280;1284;53.520;10.248;2023-01-29T04:10:30;101766.41;;;5.52;100.00
2549;BME280;1284;53.520;10.248;2023-01-29T04:13:06;101765.28;;;5.53;100.00
2549;BME280;1284;53.520;10.248;2023-01-29T04:15:39;101760.56;;;5.49;100.00
2549;BME280;1284;53.520;10.248;2023-01-29T04:18:06;101753.63;;;5.62;100.00
2549;BME280;1284;53.520;10.248;2023-01-29T04:20:44;101756.63;;;5.61;100.00
2549;BME280;1284;53.520;10.248;2023-01-29T04:23:37;101745.78;;;5.52;100.00
2549;BME280;1284;53.520;10.248;2023-01-29T04:31:51;101737.09;;;5.46;100.00
2549;BME280;1284;53.520;10.248;2023-01-29T04:34:26;101750.38;;;5.52;100.00
2549;BME280;1284;53.520;10.248;2023-01-29T04:37:01;101757.44;;;5.42;100.00
2549;BME280;1284;53.520;10.248;2023-01-29T04:39:43;101746.94;;;5.32;100.00
2549;BME280;1284;53.520;10.248;2023-01-29T04:52:48;101771.31;;;5.44;100.00
2549;BME280;1284;53.520;10.248;2023-01-29T04:55:31;101765.50;;;5.24;100.00
2549;BME280;1284;53.520;10.248;2023-01-29T04:58:31;101773.06;;;5.17;100.00
2549;BME280;1284;53.520;10.248;2023-01-29T05:00:58;101777.03;;;5.38;100.00
2549;BME280;1284;53.520;10.248;2023-01-29T05:03:26;101780.72;;;5.56;100.00
2549;BME280;1284;53.520;10.248;2023-01-29T05:05:53;101765.09;;;5.49;100.00
2549;BME280;1284;53.520;10.248;2023-01-29T05:08:22;101773.22;;;5.58;100.00
2549;BME280;1284;53.520;10.248;2023-01-29T05:10:50;101770.63;;;5.53;100.00
2549;BME280;1284;53.520;10.248;2023-01-29T05:13:19;101775.19;;;5.52;100.00
2549;BME280;1284;53.520;10.248;2023-01-29T05:15:49;101748.50;;;5.66;100.00
2549;BME280;1284;53.520;10.248;2023-01-29T05:18:16;101761.19;;;5.74;100.00
2549;BME280;1284;53.520;10.248;2023-01-29T05:20:42;101759.16;;;5.52;100.00
2549;BME280;1284;53.520;10.248;2023-01-29T05:23:20;101755.44;;;5.67;100.00
2549;BME280;1284;53.520;10.248;2023-01-29T05:25:46;101738.78;;;5.56;100.00
2549;BME280;1284;53.520;10.248;2023-01-29T05:28:12;101745.53;;;5.81;100.00
2549;BME280;1284;53.520;10.248;2023-01-29T05:30:42;101746.88;;;5.83;100.00
2549;BME280;1284;53.520;10.248;2023-01-29T05:33:17;101744.25;;;5.65;100.00
2549;BME280;1284;53.520;10.248;2023-01-29T05:35:43;101756.72;;;5.69;100.00
2549;BME280;1284;53.520;10.248;2023-01-29T05:38:09;101763.34;;;5.72;100.00
2549;BME280;1284;53.520;10.248;2023-01-29T05:40:36;101756.41;;;5.57;100.00
2549;BME280;1284;53.520;10.248;2023-01-29T05:43:02;101745.28;;;5.50;100.00
2549;BME280;1284;53.520;10.248;2023-01-29T05:45:27;101742.13;;;5.48;100.00
2549;BME280;1284;53.520;10.248;2023-01-29T05:47:59;101741.94;;;5.58;100.00
2549;BME280;1284;53.520;10.248;2023-01-29T05:50:25;101738.41;;;5.63;100.00
2549;BME280;1284;53.520;10.248;2023-01-29T05:52:58;101744.78;;;5.48;100.00
2549;BME280;1284;53.520;10.248;2023-01-29T05:55:24;101732.88;;;5.59;100.00
2549;BME280;1284;53.520;10.248;2023-01-29T05:57:49;101738.31;;;5.68;100.00
2549;BME280;1284;53.520;10.248;2023-01-29T06:00:15;101748.50;;;5.79;100.00
2549;BME280;1284;53.520;10.248;2023-01-29T06:02:40;101757.13;;;5.76;100.00
2549;BME280;1284;53.520;10.248;2023-01-29T06:05:06;101762.47;;;5.76;100.00
2549;BME280;1284;53.520;10.248;2023-01-29T06:07:32;101756.31;;;5.62;100.00
2549;BME280;1284;53.520;10.248;2023-01-29T06:09:57;101760.09;;;5.75;100.00
2549;BME280;1284;53.520;10.248;2023-01-29T06:12:23;101766.63;;;5.69;100.00
2549;BME280;1284;53.520;10.248;2023-01-29T06:14:48;101755.84;;;5.74;100.00
2549;BME280;1284;53.520;10.248;2023-01-29T06:17:14;101743.84;;;5.71;100.00
2549;BME280;1284;53.520;10.248;2023-01-29T06:19:39;101742.78;;;5.72;100.00
2549;BME280;1284;53.520;10.248;2023-01-29T06:22:04;101740.41;;;5.71;100.00
2549;BME280;1284;53.520;10.248;2023-01-29T06:24:30;101722.88;;;5.65;100.00
2549;BME280;1284;53.520;10.248;2023-01-29T06:26:57;101715.84;;;5.69;100.00
2549;BME280;1284;53.520;10.248;2023-01-29T06:29:22;101712.19;;;5.78;100.00
2549;BME280;1284;53.520;10.248;2023-01-29T06:31:47;101723.50;;;5.89;100.00
2549;BME280;1284;53.520;10.248;2023-01-29T06:34:13;101712.03;;;5.88;99.80
2549;BME280;1284;53.520;10.248;2023-01-29T06:36:38;101725.16;;;5.71;100.00
2549;BME280;1284;53.520;10.248;2023-01-29T06:39:05;101721.50;;;5.81;100.00
2549;BME280;1284;53.520;10.248;2023-01-29T06:41:31;101717.56;;;5.78;100.00
2549;BME280;1284;53.520;10.248;2023-01-29T06:43:56;101706.06;;;5.78;100.00
2549;BME280;1284;53.520;10.248;2023-01-29T06:46:22;101704.69;;;5.80;100.00
2549;BME280;1284;53.520;10.248;2023-01-29T06:48:47;101691.69;;;5.60;100.00
2549;BME280;1284;53.520;10.248;2023-01-29T06:51:12;101692.19;;;5.76;100.00
2549;BME280;1284;53.520;10.248;2023-01-29T06:53:38;101680.44;;;5.77;100.00
2549;BME280;1284;53.520;10.248;2023-01-29T06:56:05;101680.03;;;5.70;100.00
2549;BME280;1284;53.520;10.248;2023-01-29T06:58:31;101674.28;;;5.76;100.00
2549;BME280;1284;53.520;10.248;2023-01-29T07:01:06;101672.00;;;5.70;99.84
2549;BME280;1284;53.520;10.248;2023-01-29T07:03:32;101667.94;;;5.45;100.00
2549;BME280;1284;53.520;10.248;2023-01-29T07:05:58;101678.72;;;5.40;100.00
2549;BME280;1284;53.520;10.248;2023-01-29T07:08:24;101679.63;;;5.49;100.00
2549;BME280;1284;53.520;10.248;2023-01-29T07:10:49;101694.28;;;5.65;99.33
2549;BME280;1284;53.520;10.248;2023-01-29T07:13:15;101685.84;;;5.58;99.48
2549;BME280;1284;53.520;10.248;2023-01-29T07:15:41;101678.25;;;5.52;99.87
2549;BME280;1284;53.520;10.248;2023-01-29T07:18:07;101684.78;;;5.59;99.61
2549;BME280;1284;53.520;10.248;2023-01-29T07:20:38;101679.50;;;5.54;99.96
2549;BME280;1284;53.520;10.248;2023-01-29T07:23:03;101690.59;;;5.47;100.00
2549;BME280;1284;53.520;10.248;2023-01-29T07:25:30;101704.06;;;5.56;99.67
2549;BME280;1284;53.520;10.248;2023-01-29T07:27:55;101684.56;;;5.56;99.16
2549;BME280;1284;53.520;10.248;2023-01-29T07:30:24;101688.44;;;5.49;99.28
2549;BME280;1284;53.520;10.248;2023-01-29T07:32:49;101691.97;;;5.45;99.52
2549;BME280;1284;53.520;10.248;2023-01-29T07:35:15;101682.00;;;5.50;100.00
2549;BME280;1284;53.520;10.248;2023-01-29T07:37:40;101683.47;;;5.57;99.16
2549;BME280;1284;53.520;10.248;2023-01-29T07:40:06;101681.63;;;5.57;98.61
2549;BME280;1284;53.520;10.248;2023-01-29T07:45:25;101639.56;;;5.63;98.72
2549;BME280;1284;53.520;10.248;2023-01-29T07:47:52;101642.03;;;5.59;98.54
2549;BME280;1284;53.520;10.248;2023-01-29T07:50:18;101641.13;;;5.50;98.78
2549;BME280;1284;53.520;10.248;2023-01-29T07:52:44;101641.25;;;5.59;98.56
2549;BME280;1284;53.520;10.248;2023-01-29T07:55:09;101637.97;;;5.62;97.56
2549;BME280;1284;53.520;10.248;2023-01-29T07:57:34;101641.94;;;5.50;97.37
2549;BME280;1284;53.520;10.248;2023-01-29T08:00:00;101636.97;;;5.58;97.04
2549;BME280;1284;53.520;10.248;2023-01-29T08:02:25;101653.97;;;5.48;97.64
2549;BME280;1284;53.520;10.248;2023-01-29T08:04:50;101649.34;;;5.40;97.66
2549;BME280;1284;53.520;10.248;2023-01-29T08:07:16;101645.56;;;5.27;98.72
2549;BME280;1284;53.520;10.248;2023-01-29T08:09:41;101638.25;;;5.33;98.44
2549;BME280;1284;53.520;10.248;2023-01-29T08:12:07;101646.88;;;5.43;98.51
2549;BME280;1284;53.520;10.248;2023-01-29T08:14:32;101634.41;;;5.53;97.54
2549;BME280;1284;53.520;10.248;2023-01-29T08:16:57;101641.34;;;5.40;97.59
2549;BME280;1284;53.520;10.248;2023-01-29T08:19:23;101634.38;;;5.25;98.85
2549;BME280;1284;53.520;10.248;2023-01-29T08:21:48;101630.22;;;5.33;98.21
2549;BME280;1284;53.520;10.248;2023-01-29T08:24:14;101631.81;;;5.20;99.59
2549;BME280;1284;53.520;10.248;2023-01-29T08:26:39;101639.22;;;5.23;99.04
2549;BME280;1284;53.520;10.248;2023-01-29T08:29:05;101647.94;;;5.29;99.39
2549;BME280;1284;53.520;10.248;2023-01-29T08:31:30;101657.44;;;5.48;98.55
2549;BME280;1284;53.520;10.248;2023-01-29T08:33:55;101655.28;;;5.50;98.11
2549;BME280;1284;53.520;10.248;2023-01-29T08:36:21;101651.31;;;5.62;97.11
2549;BME280;1284;53.520;10.248;2023-01-29T08:38:46;101649.25;;;5.59;97.80
2549;BME280;1284;53.520;10.248;2023-01-29T08:41:12;101651.75;;;5.69;97.15
2549;BME280;1284;53.520;10.248;2023-01-29T08:43:37;101652.63;;;5.78;96.58
2549;BME280;1284;53.520;10.248;2023-01-29T08:46:04;101643.22;;;5.67;96.67
2549;BME280;1284;53.520;10.248;2023-01-29T08:48:30;101649.16;;;5.64;97.23
2549;BME280;1284;53.520;10.248;2023-01-29T08:50:57;101642.91;;;5.55;97.31
2549;BME280;1284;53.520;10.248;2023-01-29T08:53:24;101636.84;;;5.22;99.40
2549;BME280;1284;53.520;10.248;2023-01-29T08:55:50;101644.41;;;5.47;98.92
2549;BME280;1284;53.520;10.248;2023-01-29T08:58:16;101636.47;;;5.42;98.27
2549;BME280;1284;53.520;10.248;2023-01-29T09:00:41;101632.53;;;5.67;98.20
2549;BME280;1284;53.520;10.248;2023-01-29T09:03:07;101644.22;;;5.71;97.76
2549;BME280;1284;53.520;10.248;2023-01-29T09:05:34;101644.41;;;5.61;98.03
2549;BME280;1284;53.520;10.248;2023-01-29T09:07:59;101638.47;;;5.64;98.67
2549;BME280;1284;53.520;10.248;2023-01-29T09:10:25;101646.41;;;5.69;98.90
2549;BME280;1284;53.520;10.248;2023-01-29T09:12:50;101647.78;;;5.66;97.77
2549;BME280;1284;53.520;10.248;2023-01-29T09:15:16;101647.56;;;5.63;98.95
2549;BME280;1284;53.520;10.248;2023-01-29T09:17:41;101647.56;;;5.63;98.86
2549;BME280;1284;53.520;10.248;2023-01-29T09:20:08;101651.75;;;5.69;98.89
2549;BME280;1284;53.520;10.248;2023-01-29T09:22:34;101645.59;;;5.68;98.61
2549;BME280;1284;53.520;10.248;2023-01-29T09:24:59;101645.59;;;5.82;98.11
2549;BME280;1284;53.520;10.248;2023-01-29T09:27:24;101631.66;;;5.85;98.55
2549;BME280;1284;53.520;10.248;2023-01-29T09:29:50;101635.81;;;5.91;98.32
2549;BME280;1284;53.520;10.248;2023-01-29T09:32:15;101641.84;;;5.96;96.98
2549;BME280;1284;53.520;10.248;2023-01-29T09:34:41;101627.94;;;6.08;97.38
2549;BME280;1284;53.520;10.248;2023-01-29T09:37:06;101617.69;;;6.01;96.74
2549;BME280;1284;53.520;10.248;2023-01-29T09:39:32;101622.44;;;5.91;98.01
2549;BME280;1284;53.520;10.248;2023-01-29T09:42:08;101614.34;;;5.96;98.34
2549;BME280;1284;53.520;10.248;2023-01-29T09:47:23;101618.75;;;6.00;97.07
2549;BME280;1284;53.520;10.248;2023-01-29T09:49:55;101611.84;;;5.99;97.95
2549;BME280;1284;53.520;10.248;2023-01-29T09:52:25;101604.69;;;6.08;96.88
2549;BME280;1284;53.520;10.248;2023-01-29T09:57:37;101583.44;;;5.90;98.69
2549;BME280;1284;53.520;10.248;2023-01-29T10:00:06;101582.34;;;5.91;99.38
2549;BME280;1284;53.520;10.248;2023-01-29T10:02:48;101583.63;;;5.93;99.24
2549;BME280;1284;53.520;10.248;2023-01-29T10:05:21;101566.94;;;5.88;100.00
2549;BME280;1284;53.520;10.248;2023-01-29T10:08:12;101569.09;;;5.86;100.00
2549;BME280;1284;53.520;10.248;2023-01-29T10:10:50;101575.13;;;5.78;100.00
2549;BME280;1284;53.520;10.248;2023-01-29T10:13:44;101560.94;;;6.04;99.35
2549;BME280;1284;53.520;10.248;2023-01-29T10:26:56;101539.00;;;5.94;100.00
2549;BME280;1284;53.520;10.248;2023-01-29T10:29:23;101536.63;;;5.79;100.00
2549;BME280;1284;53.520;10.248;2023-01-29T10:32:00;101528.81;;;5.82;100.00
2549;BME280;1284;53.520;10.248;2023-01-29T10:34:42;101532.31;;;6.05;100.00
2549;BME280;1284;53.520;10.248;2023-01-29T10:37:25;101521.41;;;6.15;100.00
2549;BME280;1284;53.520;10.248;2023-01-29T10:39:52;101517.38;;;6.26;99.46
2549;BME280;1284;53.520;10.248;2023-01-29T10:42:36;101511.16;;;6.39;99.75
2549;BME280;1284;53.520;10.248;2023-01-29T10:45:24;101510.19;;;6.35;99.25
2549;BME280;1284;53.520;10.248;2023-01-29T10:48:08;101507.00;;;6.24;99.41
2549;BME280;1284;53.520;10.248;2023-01-29T10:50:54;101504.50;;;6.28;100.00
2549;BME280;1284;53.520;10.248;2023-01-29T11:02:01;101487.38;;;6.07;100.00
2549;BME280;1284;53.520;10.248;2023-01-29T11:04:34;101501.28;;;6.17;100.00
2549;BME280;1284;53.520;10.248;2023-01-29T11:07:00;101494.47;;;6.33;100.00
2549;BME280;1284;53.520;10.248;2023-01-29T11:09:30;101489.19;;;6.42;100.00
2549;BME280;1284;53.520;10.248;2023-01-29T11:12:02;101482.69;;;6.34;100.00
2549;BME280;1284;53.520;10.248;2023-01-29T11:17:01;101484.44;;;6.39;99.78
2549;BME280;1284;53.520;10.248;2023-01-29T11:19:41;101480.59;;;6.54;99.80
2549;BME280;1284;53.520;10.248;2023-01-29T11:22:18;101493.72;;;6.42;99.64
2549;BME280;1284;53.520;10.248;2023-01-29T11:24:45;101486.69;;;6.46;99.72
2549;BME280;1284;53.520;10.248;2023-01-29T11:27:23;101490.16;;;6.46;99.78
2549;BME280;1284;53.520;10.248;2023-01-29T11:35:16;101479.88;;;6.39;99.79
2549;BME280;1284;53.520;10.248;2023-01-29T11:37:44;101473.00;;;6.47;99.73
2549;BME280;1284;53.520;10.248;2023-01-29T11:42:42;101459.28;;;6.18;99.94
2549;BME280;1284;53.520;10.248;2023-01-29T11:45:27;101454.53;;;6.37;99.76
2549;BME280;1284;53.520;10.248;2023-01-29T11:47:57;101465.03;;;6.33;99.16
2549;BME280;1284;53.520;10.248;2023-01-29T11:50:25;101451.72;;;6.42;99.40
2549;BME280;1284;53.520;10.248;2023-01-29T11:52:51;101449.84;;;6.43;99.28
2549;BME280;1284;53.520;10.248;2023-01-29T11:55:20;101443.31;;;6.26;99.97
2549;BME280;1284;53.520;10.248;2023-01-29T11:57:52;101432.59;;;6.26;99.63
2549;BME280;1284;53.520;10.248;2023-01-29T12:00:29;101427.19;;;6.40;98.73
2549;BME280;1284;53.520;10.248;2023-01-29T12:03:21;101431.91;;;6.43;98.50
2549;BME280;1284;53.520;10.248;2023-01-29T12:06:01;101421.13;;;6.26;98.35
2549;BME280;1284;53.520;10.248;2023-01-29T12:08:34;101417.97;;;6.24;99.01
2549;BME280;1284;53.520;10.248;2023-01-29T12:11:13;101408.00;;;6.16;99.64
2549;BME280;1284;53.520;10.248;2023-01-29T12:13:41;101405.88;;;6.26;98.76
2549;BME280;1284;53.520;10.248;2023-01-29T12:19:23;101399.53;;;6.53;97.85
2549;BME280;1284;53.520;10.248;2023-01-29T12:29:44;101377.81;;;6.15;99.34
2549;BME280;1284;53.520;10.248;2023-01-29T12:34:47;101365.66;;;6.49;97.57
2549;BME280;1284;53.520;10.248;2023-01-29T12:37:20;101367.56;;;6.48;97.84
2549;BME280;1284;53.520;10.248;2023-01-29T12:39:48;101363.66;;;6.54;97.40
2549;BME280;1284;53.520;10.248;2023-01-29T12:42:20;101357.84;;;6.52;96.98
2549;BME280;1284;53.520;10.248;2023-01-29T12:45:00;101360.69;;;6.64;97.38
2549;BME280;1284;53.520;10.248;2023-01-29T12:47:31;101350.63;;;6.70;96.88
2549;BME280;1284;53.520;10.248;2023-01-29T12:50:05;101343.72;;;6.69;96.69
2549;BME280;1284;53.520;10.248;2023-01-29T12:52:42;101337.72;;;6.63;96.11
2549;BME280;1284;53.520;10.248;2023-01-29T12:55:19;101331.88;;;6.61;96.28
2549;BME280;1284;53.520;10.248;2023-01-29T12:57:49;101334.13;;;6.76;96.06
2549;BME280;1284;53.520;10.248;2023-01-29T13:00:23;101335.84;;;6.72;95.83
2549;BME280;1284;53.520;10.248;2023-01-29T13:02:54;101322.94;;;6.66;95.65
2549;BME280;1284;53.520;10.248;2023-01-29T13:05:22;101320.38;;;6.52;96.77
2549;BME280;1284;53.520;10.248;2023-01-29T13:08:13;101319.81;;;6.33;97.41
2549;BME280;1284;53.520;10.248;2023-01-29T13:10:44;101317.22;;;6.50;97.12
2549;BME280;1284;53.520;10.248;2023-01-29T13:13:34;101299.00;;;6.61;95.38
2549;BME280;1284;53.520;10.248;2023-01-29T13:16:05;101296.47;;;6.56;95.45
2549;BME280;1284;53.520;10.248;2023-01-29T13:21:21;101290.97;;;6.61;95.58
2549;BME280;1284;53.520;10.248;2023-01-29T13:23:47;101291.25;;;6.42;95.96
2549;BME280;1284;53.520;10.248;2023-01-29T13:26:21;101291.09;;;6.47;96.16
2549;BME280;1284;53.520;10.248;2023-01-29T13:28:48;101292.84;;;6.52;96.59
2549;BME280;1284;53.520;10.248;2023-01-29T13:31:29;101278.00;;;6.37;95.53
2549;BME280;1284;53.520;10.248;2023-01-29T13:34:15;101276.75;;;6.34;96.27
2549;BME280;1284;53.520;10.248;2023-01-29T13:37:02;101279.31;;;6.57;95.64
2549;BME280;1284;53.520;10.248;2023-01-29T13:39:30;101270.81;;;6.46;94.91
2549;BME280;1284;53.520;10.248;2023-01-29T13:41:59;101278.06;;;6.54;95.56
2549;BME280;1284;53.520;10.248;2023-01-29T13:44:37;101274.25;;;6.47;94.18
2549;BME280;1284;53.520;10.248;2023-01-29T13:47:05;101281.03;;;6.44;94.35
2549;BME280;1284;53.520;10.248;2023-01-29T13:49:44;101269.97;;;6.37;95.02
2549;BME280;1284;53.520;10.248;2023-01-29T13:55:02;101253.16;;;6.45;94.84
2549;BME280;1284;53.520;10.248;2023-01-29T14:13:44;101238.22;;;6.44;94.73
2549;BME280;1284;53.520;10.248;2023-01-29T14:18:59;101225.25;;;6.20;95.85
2549;BME280;1284;53.520;10.248;2023-01-29T14:21:31;101223.75;;;6.54;94.37
2549;BME280;1284;53.520;10.248;2023-01-29T14:24:17;101216.06;;;6.52;93.72
2549;BME280;1284;53.520;10.248;2023-01-29T14:26:45;101210.03;;;6.38;94.75
2549;BME280;1284;53.520;10.248;2023-01-29T14:31:59;101210.38;;;6.45;94.93
2549;BME280;1284;53.520;10.248;2023-01-29T14:34:47;101209.72;;;6.39;95.42
2549;BME280;1284;53.520;10.248;2023-01-29T14:42:35;101193.69;;;6.48;95.61
2549;BME280;1284;53.520;10.248;2023-01-29T14:48:37;101196.69;;;6.38;95.11
2549;BME280;1284;53.520;10.248;2023-01-29T14:50:40;101194.28;;;6.28;95.11
2549;BME280;1284;53.520;10.248;2023-01-29T14:53:11;101195.25;;;6.32;95.86
2549;BME280;1284;53.520;10.248;2023-01-29T14:55:59;101182.19;;;6.30;95.64
2549;BME280;1284;53.520;10.248;2023-01-29T14:58:41;101177.47;;;6.36;95.44
2549;BME280;1284;53.520;10.248;2023-01-29T15:03:45;101179.19;;;6.32;94.82
2549;BME280;1284;53.520;10.248;2023-01-29T15:06:19;101171.66;;;6.34;95.38
2549;BME280;1284;53.520;10.248;2023-01-29T15:09:13;101168.34;;;6.28;94.78
2549;BME280;1284;53.520;10.248;2023-01-29T15:14:37;101162.03;;;6.33;94.84
2549;BME280;1284;53.520;10.248;2023-01-29T15:17:16;101162.22;;;6.28;95.51
2549;BME280;1284;53.520;10.248;2023-01-29T15:19:45;101159.72;;;6.40;94.94
2549;BME280;1284;53.520;10.248;2023-01-29T15:22:14;101163.97;;;6.50;94.16
2549;BME280;1284;53.520;10.248;2023-01-29T15:24:42;101159.06;;;6.34;94.69
2549;BME280;1284;53.520;10.248;2023-01-29T15:27:18;101155.91;;;6.24;95.16
2549;BME280;1284;53.520;10.248;2023-01-29T15:29:54;101152.59;;;6.18;95.11
2549;BME280;1284;53.520;10.248;2023-01-29T15:32:32;101151.19;;;6.21;95.35
2549;BME280;1284;53.520;10.248;2023-01-29T15:34:59;101147.38;;;6.05;96.04
2549;BME280;1284;53.520;10.248;2023-01-29T15:37:34;101135.59;;;6.14;96.28
2549;BME280;1284;53.520;10.248;2023-01-29T15:40:00;101129.34;;;6.19;95.56
2549;BME280;1284;53.520;10.248;2023-01-29T15:42:28;101123.00;;;6.06;95.09
2549;BME280;1284;53.520;10.248;2023-01-29T15:44:54;101121.75;;;5.95;97.01
2549;BME280;1284;53.520;10.248;2023-01-29T15:47:23;101116.66;;;5.77;96.94
2549;BME280;1284;53.520;10.248;2023-01-29T15:49:51;101113.41;;;5.88;97.38
2549;BME280;1284;53.520;10.248;2023-01-29T15:52:22;101118.16;;;6.00;96.67
2549;BME280;1284;53.520;10.248;2023-01-29T15:54:50;101115.16;;;6.01;96.76